Time;durP1;ratioP1;P1;durP2;ratioP2;P2;SDS_P1;SDS_P2;PMS_P1;PMS_P2;Temp;Humidity;BMP_temperature;BMP_pressure;BME280_temperature;BME280_humidity;BME280_pressure;Samples;Min_cycle;Max_cycle;Signal;HPM_P1;HPM_P2
2022/07/10 00:00:57;;;;;;;1999.90;999.90;;;14.10;99.90;;;;;;4992767;28;20208;-70
2022/07/10 00:03:23;;;;;;;1999.90;999.90;;;14.10;99.90;;;;;;4992770;28;20638;-72
2022/07/10 00:05:49;;;;;;;1999.90;999.90;;;14.10;99.90;;;;;;4991492;28;20176;-71
2022/07/10 00:08:15;;;;;;;1999.90;999.90;;;14.10;99.90;;;;;;4992584;28;20413;-72
2022/07/10 00:10:40;;;;;;;1999.90;999.90;;;14.00;99.90;;;;;;4991733;28;20430;-71
2022/07/10 00:13:06;;;;;;;1999.90;999.90;;;14.10;99.90;;;;;;4992663;28;20188;-72
2022/07/10 00:15:32;;;;;;;1999.90;999.90;;;14.10;99.90;;;;;;4992662;28;20409;-71
2022/07/10 00:17:57;;;;;;;1999.90;999.90;;;14.10;99.90;;;;;;4992297;28;20217;-72
2022/07/10 00:20:23;;;;;;;1999.90;999.90;;;14.10;99.90;;;;;;4992547;28;20212;-72
2022/07/10 00:22:48;;;;;;;1999.90;999.90;;;14.10;99.90;;;;;;4992638;28;20198;-72
2022/07/10 00:25:14;;;;;;;1999.90;999.90;;;14.20;99.90;;;;;;4992573;28;20597;-71
2022/07/10 00:27:41;;;;;;;1999.90;999.90;;;14.10;99.90;;;;;;4992287;28;20204;-71
2022/07/10 00:30:08;;;;;;;1999.90;999.90;;;14.10;99.90;;;;;;4992431;28;20803;-70
2022/07/10 00:32:33;;;;;;;1999.90;999.90;;;14.00;99.90;;;;;;4992542;28;20830;-72
2022/07/10 00:34:59;;;;;;;1999.90;999.90;;;14.00;99.90;;;;;;4992509;28;20402;-72
2022/07/10 00:37:25;;;;;;;1999.90;999.90;;;14.00;99.90;;;;;;4992180;28;20178;-73
2022/07/10 00:39:50;;;;;;;1999.90;999.90;;;14.00;99.90;;;;;;4992289;28;20217;-72
2022/07/10 00:42:16;;;;;;;1999.90;999.90;;;13.90;99.90;;;;;;4992447;28;20175;-70
2022/07/10 00:44:43;;;;;;;1999.90;999.90;;;13.90;99.90;;;;;;4992445;28;20226;-70
2022/07/10 00:47:10;;;;;;;1999.90;999.90;;;13.80;99.90;;;;;;4992049;28;20456;-71
2022/07/10 00:49:36;;;;;;;1999.90;999.90;;;13.80;99.90;;;;;;4992139;28;20458;-72
2022/07/10 00:52:06;;;;;;;1999.90;999.90;;;13.80;99.90;;;;;;4992325;28;20500;-73
2022/07/10 00:54:34;;;;;;;1999.90;999.90;;;13.70;99.90;;;;;;4992310;28;20421;-73
2022/07/10 00:57:02;;;;;;;1999.90;999.90;;;13.70;99.90;;;;;;4992004;28;20777;-73
2022/07/10 00:59:28;;;;;;;1999.90;999.90;;;13.70;99.90;;;;;;4992130;28;20470;-72
2022/07/10 01:01:54;;;;;;;1999.90;999.90;;;13.60;99.90;;;;;;4992342;28;20853;-73
2022/07/10 01:04:20;;;;;;;1999.90;999.90;;;13.70;99.90;;;;;;4992249;28;20177;-72
2022/07/10 01:06:47;;;;;;;1999.90;999.90;;;13.70;99.90;;;;;;4991951;28;20401;-72
2022/07/10 01:09:12;;;;;;;1999.90;999.90;;;13.80;99.90;;;;;;4992095;28;20418;-72
2022/07/10 01:11:38;;;;;;;1999.90;999.90;;;13.80;99.90;;;;;;4992293;28;20409;-71
2022/07/10 01:14:04;;;;;;;1999.90;999.90;;;13.80;99.90;;;;;;4992209;28;20168;-73
2022/07/10 01:16:31;;;;;;;1999.90;999.90;;;13.80;99.90;;;;;;4991880;28;20414;-71
2022/07/10 01:18:57;;;;;;;1999.90;999.90;;;13.80;99.90;;;;;;4991968;28;20412;-72
2022/07/10 01:21:27;;;;;;;1999.90;999.90;;;13.80;99.90;;;;;;4993252;28;20433;-71
2022/07/10 01:23:53;;;;;;;1999.90;999.90;;;13.80;99.90;;;;;;4995689;28;20773;-72
2022/07/10 01:26:21;;;;;;;1999.90;999.90;;;13.80;99.90;;;;;;4995356;28;20405;-72
2022/07/10 01:28:50;;;;;;;1999.90;999.90;;;13.80;99.90;;;;;;4995739;28;20180;-72
2022/07/10 01:31:20;;;;;;;1999.90;999.90;;;13.80;99.90;;;;;;4995429;28;20519;-71
2022/07/10 01:33:46;;;;;;;1999.90;999.90;;;13.80;99.90;;;;;;4995502;28;20905;-71
2022/07/10 01:36:12;;;;;;;1999.90;999.90;;;13.80;99.90;;;;;;4995119;28;20425;-70
2022/07/10 01:38:40;;;;;;;1999.90;999.90;;;13.90;99.90;;;;;;4995444;28;20940;-71
2022/07/10 01:41:06;;;;;;;1999.90;999.90;;;13.90;99.90;;;;;;4995217;28;20523;-70
2022/07/10 01:43:32;;;;;;;1999.90;999.90;;;13.90;99.90;;;;;;4995434;28;20405;-71
2022/07/10 01:45:57;;;;;;;1999.90;999.90;;;13.90;99.90;;;;;;4995049;28;20504;-72
2022/07/10 01:48:23;;;;;;;1999.90;999.90;;;13.90;99.90;;;;;;4995262;28;20628;-71
2022/07/10 01:50:48;;;;;;;1999.90;999.90;;;13.90;99.90;;;;;;4995075;28;20221;-70
2022/07/10 01:53:14;;;;;;;1999.90;999.90;;;13.90;99.90;;;;;;5026751;28;20176;-72
2022/07/10 01:55:39;;;;;;;1999.90;999.90;;;13.90;99.90;;;;;;4995138;28;20276;-71
2022/07/10 01:58:05;;;;;;;1999.90;999.90;;;13.90;99.90;;;;;;4994836;28;20182;-70
2022/07/10 02:00:31;;;;;;;1999.90;999.90;;;13.90;99.90;;;;;;4994943;28;20202;-70
2022/07/10 02:05:40;;;;;;;1999.90;999.90;;;13.90;99.90;;;;;;4994974;28;20184;-72
2022/07/10 02:08:06;;;;;;;1999.90;999.90;;;13.90;99.90;;;;;;4994657;28;20493;-72
2022/07/10 02:10:32;;;;;;;1999.90;999.90;;;13.90;99.90;;;;;;4994839;28;20208;-72
2022/07/10 02:12:58;;;;;;;1999.90;999.90;;;13.90;99.90;;;;;;4994892;28;20177;-72
2022/07/10 02:15:23;;;;;;;1999.90;999.90;;;14.00;99.90;;;;;;4994721;28;20411;-71
2022/07/10 02:17:49;;;;;;;1999.90;999.90;;;14.00;99.90;;;;;;4994442;28;20409;-72
2022/07/10 02:20:15;;;;;;;1999.90;999.90;;;14.00;99.90;;;;;;4994460;28;20216;-71
2022/07/10 02:22:42;;;;;;;1999.90;999.90;;;14.10;99.90;;;;;;4994570;28;20414;-72
2022/07/10 02:25:08;;;;;;;1999.90;999.90;;;14.10;99.90;;;;;;4994526;28;20173;-72
2022/07/10 02:27:34;;;;;;;1999.90;999.90;;;14.00;99.90;;;;;;4994250;28;20416;-70
2022/07/10 02:29:59;;;;;;;1999.90;999.90;;;14.00;99.90;;;;;;4994361;28;20437;-72
2022/07/10 02:32:25;;;;;;;1999.90;999.90;;;14.00;99.90;;;;;;4993546;28;20174;-72
2022/07/10 02:34:51;;;;;;;1999.90;999.90;;;13.90;99.90;;;;;;4994262;28;20228;-71
2022/07/10 02:37:16;;;;;;;1999.90;999.90;;;14.00;99.90;;;;;;4994092;28;20248;-72
2022/07/10 02:39:42;;;;;;;1999.90;999.90;;;14.00;99.90;;;;;;4994180;28;20553;-72
2022/07/10 02:42:08;;;;;;;1999.90;999.90;;;13.90;99.90;;;;;;4994225;28;20180;-72
2022/07/10 02:44:33;;;;;;;1999.90;999.90;;;14.00;99.90;;;;;;4994245;28;20577;-72
2022/07/10 02:46:59;;;;;;;1999.90;999.90;;;14.00;99.90;;;;;;4993837;28;20170;-72
2022/07/10 02:49:24;;;;;;;1999.90;999.90;;;14.00;99.90;;;;;;4993952;28;20259;-72
2022/07/10 02:51:50;;;;;;;1999.90;999.90;;;14.00;99.90;;;;;;4994121;28;20297;-72
2022/07/10 02:54:16;;;;;;;1999.90;999.90;;;14.00;99.90;;;;;;4994064;28;20170;-71
2022/07/10 02:56:42;;;;;;;1999.90;999.90;;;14.10;99.90;;;;;;4993662;28;20180;-69
2022/07/10 02:59:07;;;;;;;1999.90;999.90;;;14.10;99.90;;;;;;4993737;28;20550;-70
2022/07/10 03:01:33;;;;;;;1999.90;999.90;;;14.10;99.90;;;;;;4993816;28;20410;-72
2022/07/10 03:04:01;;;;;;;1999.90;999.90;;;14.10;99.90;;;;;;4993937;28;20171;-71
2022/07/10 03:06:26;;;;;;;1999.90;999.90;;;14.00;99.90;;;;;;4993472;28;20167;-72
2022/07/10 03:08:52;;;;;;;1999.90;999.90;;;14.00;99.90;;;;;;4993757;28;20418;-72
2022/07/10 03:11:18;;;;;;;1999.90;999.90;;;13.90;99.90;;;;;;4993607;28;20194;-72
2022/07/10 03:13:43;;;;;;;1999.90;999.90;;;13.80;99.90;;;;;;4993740;28;20173;-71
2022/07/10 03:16:09;;;;;;;1999.90;999.90;;;13.70;99.90;;;;;;4993236;28;20224;-72
2022/07/10 03:18:34;;;;;;;1999.90;999.90;;;13.70;99.90;;;;;;4993610;28;20638;-70
2022/07/10 03:21:00;;;;;;;1999.90;999.90;;;13.70;99.90;;;;;;4993429;28;20742;-71
2022/07/10 03:23:25;;;;;;;1999.90;999.90;;;13.70;99.90;;;;;;4993570;28;20173;-70
2022/07/10 03:25:51;;;;;;;1999.90;999.90;;;13.70;99.90;;;;;;4993340;28;20166;-71
2022/07/10 03:28:17;;;;;;;1999.90;999.90;;;13.70;99.90;;;;;;4993319;28;20167;-70
2022/07/10 03:30:42;;;;;;;1999.90;999.90;;;13.80;99.90;;;;;;4993175;28;20250;-72
2022/07/10 03:33:08;;;;;;;1999.90;999.90;;;13.80;99.90;;;;;;4993340;28;20275;-71
2022/07/10 03:35:34;;;;;;;1999.90;999.90;;;13.80;99.90;;;;;;4993281;28;20180;-72
2022/07/10 03:37:59;;;;;;;1999.90;999.90;;;13.80;99.90;;;;;;4992941;28;20174;-70
2022/07/10 03:40:26;;;;;;;1999.90;999.90;;;13.80;99.90;;;;;;4992974;28;20241;-72
2022/07/10 03:42:52;;;;;;;1999.90;999.90;;;13.80;99.90;;;;;;4993193;28;20166;-72
2022/07/10 03:45:18;;;;;;;1999.90;999.90;;;13.80;99.90;;;;;;4992743;28;20412;-72
2022/07/10 03:47:43;;;;;;;1999.90;999.90;;;13.70;99.90;;;;;;5024514;28;20262;-73
2022/07/10 03:50:09;;;;;;;1999.90;999.90;;;13.70;99.90;;;;;;4993331;28;20867;-70
2022/07/10 03:52:35;;;;;;;1999.90;999.90;;;13.70;99.90;;;;;;4993001;28;20166;-70
2022/07/10 03:55:01;;;;;;;1999.90;999.90;;;13.70;99.90;;;;;;4993020;28;20170;-71
2022/07/10 04:00:11;;;;;;;1999.90;999.90;;;13.80;99.90;;;;;;4992768;28;20519;-72
2022/07/10 04:02:37;;;;;;;1999.90;999.90;;;13.80;99.90;;;;;;4992936;28;20401;-70
2022/07/10 04:05:06;;;;;;;1999.90;999.90;;;13.80;99.90;;;;;;4992815;28;20408;-71
2022/07/10 04:07:32;;;;;;;1999.90;999.90;;;13.90;99.90;;;;;;4992528;28;20244;-71
2022/07/10 04:09:57;;;;;;;1999.90;999.90;;;13.90;99.90;;;;;;4992718;28;20822;-72
2022/07/10 04:12:23;;;;;;;1999.90;999.90;;;14.00;99.90;;;;;;4992662;28;20196;-72
2022/07/10 04:14:51;;;;;;;1999.90;999.90;;;14.00;99.90;;;;;;4992682;28;20173;-72
2022/07/10 04:17:17;;;;;;;1999.90;999.90;;;14.00;99.90;;;;;;4992429;28;20550;-70
2022/07/10 04:19:43;;;;;;;1999.90;999.90;;;14.00;99.90;;;;;;4992550;28;20978;-72
2022/07/10 04:22:08;;;;;;;1999.90;999.90;;;14.00;99.90;;;;;;4992613;28;20501;-70
2022/07/10 04:24:34;;;;;;;1999.90;999.90;;;13.90;99.90;;;;;;4992609;28;20253;-71
2022/07/10 04:27:01;;;;;;;1999.90;999.90;;;14.00;99.90;;;;;;4992292;28;20632;-71
2022/07/10 04:29:26;;;;;;;1999.90;999.90;;;14.00;99.90;;;;;;4992420;28;20462;-70
2022/07/10 04:31:52;;;;;;;1999.90;999.90;;;14.00;99.90;;;;;;4992536;28;20447;-70
2022/07/10 04:34:18;;;;;;;1999.90;999.90;;;14.00;99.90;;;;;;4992556;28;20175;-71
2022/07/10 04:36:43;;;;;;;1999.90;999.90;;;14.10;99.90;;;;;;4992234;28;20184;-72
2022/07/10 04:39:09;;;;;;;1999.90;999.90;;;14.10;99.90;;;;;;4992365;28;20254;-71
2022/07/10 04:41:34;;;;;;;1999.90;999.90;;;14.10;99.90;;;;;;4992370;28;20239;-73
2022/07/10 04:44:00;;;;;;;1999.90;999.90;;;14.00;99.90;;;;;;4992421;28;20177;-72
2022/07/10 04:46:26;;;;;;;1999.90;999.90;;;14.00;99.90;;;;;;4992157;28;20173;-72
2022/07/10 04:48:51;;;;;;;1999.90;999.90;;;14.00;99.90;;;;;;4992431;28;20330;-71
2022/07/10 04:51:17;;;;;;;1999.90;999.90;;;14.00;99.90;;;;;;4992408;28;20185;-72
2022/07/10 04:53:43;;;;;;;1999.90;999.90;;;14.10;99.90;;;;;;4992368;28;20585;-71
2022/07/10 04:56:09;;;;;;;1999.90;999.90;;;14.10;99.90;;;;;;4993009;28;20443;-72
2022/07/10 04:58:35;;;;;;;1999.90;999.90;;;14.20;99.90;;;;;;4996085;28;20174;-72
2022/07/10 05:01:00;;;;;;;1999.90;999.90;;;14.20;99.90;;;;;;4996009;28;20270;-72
2022/07/10 05:03:28;;;;;;;1999.90;999.90;;;14.40;99.90;;;;;;4996060;28;20911;-72
2022/07/10 05:05:53;;;;;;;1999.90;999.90;;;14.40;99.90;;;;;;4995995;28;20171;-71
2022/07/10 05:08:19;;;;;;;1999.90;999.90;;;14.50;99.90;;;;;;4995783;28;20893;-72
2022/07/10 05:10:44;;;;;;;1999.90;999.90;;;14.50;99.90;;;;;;4995921;28;20246;-72
2022/07/10 05:13:11;;;;;;;1999.90;999.90;;;14.50;99.90;;;;;;4995912;28;20180;-71
2022/07/10 05:15:37;;;;;;;1999.90;999.90;;;14.50;99.90;;;;;;4995877;28;20545;-72
2022/07/10 05:18:03;;;;;;;1999.90;999.90;;;14.60;99.90;;;;;;4995628;28;20410;-71
2022/07/10 05:20:28;;;;;;;1999.90;999.90;;;14.70;99.90;;;;;;4995674;28;20452;-72
2022/07/10 05:22:54;;;;;;;1999.90;999.90;;;14.80;99.90;;;;;;4995790;28;20200;-72
2022/07/10 05:25:20;;;;;;;1999.90;999.90;;;14.90;99.90;;;;;;4995683;28;20243;-71
2022/07/10 05:27:45;;;;;;;1999.90;999.90;;;14.80;99.90;;;;;;4995364;28;20187;-72
2022/07/10 05:30:11;;;;;;;1999.90;999.90;;;14.90;99.90;;;;;;4995583;28;20190;-71
2022/07/10 05:32:46;;;;;;;1999.90;999.90;;;14.90;99.90;;;;;;4995567;28;20304;-71
2022/07/10 05:35:13;;;;;;;1999.90;999.90;;;14.90;99.90;;;;;;4995527;28;20223;-71
2022/07/10 05:37:39;;;;;;;1999.90;999.90;;;15.00;99.90;;;;;;4995106;28;20488;-70
2022/07/10 05:40:05;;;;;;;1999.90;999.90;;;14.90;99.90;;;;;;4995294;28;20608;-72
2022/07/10 05:42:31;;;;;;;1999.90;999.90;;;15.00;99.90;;;;;;4995340;28;20165;-71
2022/07/10 05:44:56;;;;;;;1999.90;999.90;;;15.00;99.90;;;;;;4995410;28;20412;-71
2022/07/10 05:47:22;;;;;;;1999.90;999.90;;;14.90;99.90;;;;;;4994969;28;20179;-71
2022/07/10 05:49:48;;;;;;;1999.90;999.90;;;15.10;99.90;;;;;;4995099;28;20211;-71
2022/07/10 05:52:13;;;;;;;1999.90;999.90;;;15.10;99.90;;;;;;5026848;28;20179;-71
2022/07/10 05:54:39;;;;;;;1999.90;999.90;;;15.10;99.90;;;;;;4995115;28;20173;-72
2022/07/10 05:57:05;;;;;;;1999.90;999.90;;;15.20;99.90;;;;;;4994894;28;20461;-70
2022/07/10 05:59:34;;;;;;;1999.90;999.90;;;15.40;99.90;;;;;;4994932;28;20200;-71
2022/07/10 06:02:03;;;;;;;1999.90;999.90;;;15.50;99.90;;;;;;4995055;28;20404;-71
2022/07/10 06:04:28;;;;;;;1999.90;999.90;;;15.70;99.90;;;;;;4995024;28;20403;-71
2022/07/10 06:06:54;;;;;;;1999.90;999.90;;;15.70;99.90;;;;;;4994575;28;20407;-70
2022/07/10 06:09:20;;;;;;;1999.90;999.90;;;15.60;99.90;;;;;;4994868;28;20217;-72
2022/07/10 06:11:48;;;;;;;1999.90;999.90;;;15.70;99.90;;;;;;4994815;28;20159;-72
2022/07/10 06:14:13;;;;;;;1999.90;999.90;;;15.70;99.90;;;;;;4994839;28;20172;-72
2022/07/10 06:16:39;;;;;;;1999.90;999.90;;;15.80;99.90;;;;;;4994455;28;20409;-72
2022/07/10 06:19:05;;;;;;;1999.90;999.90;;;15.80;99.90;;;;;;4994560;28;20249;-72
2022/07/10 06:21:31;;;;;;;1999.90;999.90;;;15.70;99.90;;;;;;4994589;28;20170;-72
2022/07/10 06:23:56;;;;;;;1999.90;999.90;;;15.70;99.90;;;;;;4994625;28;20170;-70
2022/07/10 06:26:22;;;;;;;1999.90;999.90;;;15.50;99.90;;;;;;4994219;28;20421;-72
2022/07/10 06:28:48;;;;;;;1999.90;999.90;;;15.40;99.90;;;;;;4994504;28;20177;-71
2022/07/10 06:31:13;;;;;;;1999.90;999.90;;;15.30;99.90;;;;;;4994435;28;20185;-72
2022/07/10 06:33:39;;;;;;;1999.90;999.90;;;15.20;99.90;;;;;;4994424;28;20637;-71
2022/07/10 06:36:05;;;;;;;1999.90;999.90;;;15.30;99.90;;;;;;4994060;28;20174;-71
2022/07/10 06:38:31;;;;;;;1999.90;999.90;;;15.30;99.90;;;;;;4994345;28;20173;-72
2022/07/10 06:40:57;;;;;;;1999.90;999.90;;;15.60;99.90;;;;;;4994139;28;20454;-72
2022/07/10 06:43:22;;;;;;;1999.90;999.90;;;15.60;99.90;;;;;;4994299;28;20409;-71
2022/07/10 06:45:48;;;;;;;1999.90;999.90;;;15.70;99.90;;;;;;4994161;28;20162;-72
2022/07/10 06:48:15;;;;;;;1999.90;999.90;;;15.70;99.90;;;;;;4993983;28;20164;-72
2022/07/10 06:50:41;;;;;;;1999.90;999.90;;;15.70;99.90;;;;;;4993903;28;20209;-70
2022/07/10 06:53:07;;;;;;;1999.90;999.90;;;15.70;99.90;;;;;;4994114;28;20402;-72
2022/07/10 06:55:33;;;;;;;1999.90;999.90;;;15.80;99.90;;;;;;4994001;28;20414;-72
2022/07/10 06:57:59;;;;;;;1999.90;999.90;;;15.80;99.90;;;;;;4993780;28;20414;-71
2022/07/10 07:00:25;;;;;;;1999.90;999.90;;;15.90;99.90;;;;;;4993819;28;20575;-72
2022/07/10 07:02:51;;;;;;;1999.90;999.90;;;15.90;99.90;;;;;;4993924;28;20958;-72
2022/07/10 07:05:17;;;;;;;1999.90;999.90;;;16.00;99.90;;;;;;4993925;28;20407;-72
2022/07/10 07:07:42;;;;;;;1999.90;999.90;;;16.10;99.90;;;;;;4993500;28;20411;-72
2022/07/10 07:10:09;;;;;;;1999.90;999.90;;;16.30;99.90;;;;;;4993671;28;20216;-70
2022/07/10 07:12:35;;;;;;;1999.90;999.90;;;16.40;99.90;;;;;;4993694;28;20185;-72
2022/07/10 07:15:00;;;;;;;1999.90;999.90;;;16.40;99.90;;;;;;4993685;28;20413;-71
2022/07/10 07:17:33;;;;;;;1999.90;999.90;;;16.30;99.90;;;;;;4993320;28;20639;-72
2022/07/10 07:25:28;;;;;;;1999.90;999.90;;;16.00;99.90;;;;;;4993772;28;20529;-71
2022/07/10 07:27:54;;;;;;;1999.90;999.90;;;16.10;99.90;;;;;;4993139;28;20440;-70
2022/07/10 07:30:20;;;;;;;1999.90;999.90;;;16.30;99.90;;;;;;4993339;28;20439;-71
2022/07/10 07:32:47;;;;;;;1999.90;999.90;;;16.40;99.90;;;;;;4993466;28;20251;-71
2022/07/10 07:35:14;;;;;;;1999.90;999.90;;;16.60;99.90;;;;;;4993268;28;20166;-72
2022/07/10 07:37:45;;;;;;;1999.90;999.90;;;16.70;99.90;;;;;;4992943;28;20416;-72
2022/07/10 07:40:13;;;;;;;1999.90;999.90;;;16.90;99.90;;;;;;4993069;28;20560;-72
2022/07/10 07:42:40;;;;;;;1999.90;999.90;;;17.00;99.90;;;;;;4993160;28;20771;-71
2022/07/10 07:45:08;;;;;;;1999.90;999.90;;;17.00;99.90;;;;;;4993062;28;20406;-72
2022/07/10 07:47:47;;;;;;;1999.90;999.90;;;17.00;99.90;;;;;;4992831;28;20466;-70
2022/07/10 07:50:14;;;;;;;1999.90;999.90;;;17.00;99.90;;;;;;4992879;28;20518;-70
2022/07/10 07:52:40;;;;;;;1999.90;999.90;;;16.90;99.90;;;;;;4993002;28;20408;-70
2022/07/10 07:55:07;;;;;;;1999.90;999.90;;;17.00;99.90;;;;;;4992991;28;20492;-71
2022/07/10 07:57:32;;;;;;;1999.90;999.90;;;17.20;99.90;;;;;;4992634;28;21025;-71
2022/07/10 07:59:58;;;;;;;1999.90;999.90;;;17.30;99.90;;;;;;4992597;28;20549;-72
2022/07/10 08:02:24;;;;;;;1999.90;999.90;;;17.40;99.90;;;;;;4992926;28;20216;-71
2022/07/10 08:04:49;;;;;;;1999.90;999.90;;;17.50;99.90;;;;;;4992879;28;20640;-72
2022/07/10 08:07:15;;;;;;;1999.90;999.90;;;17.60;99.90;;;;;;4992550;28;20251;-72
2022/07/10 08:09:40;;;;;;;1999.90;999.90;;;17.90;99.90;;;;;;4992749;28;20193;-72
2022/07/10 08:12:06;;;;;;;1999.90;999.90;;;17.90;99.90;;;;;;4992717;28;20202;-71
2022/07/10 08:14:32;;;;;;;1999.90;999.90;;;17.90;99.90;;;;;;4992714;28;20177;-71
2022/07/10 08:16:58;;;;;;;1999.90;999.90;;;18.00;99.90;;;;;;4992414;28;20412;-71
2022/07/10 08:19:24;;;;;;;1999.90;999.90;;;18.00;99.90;;;;;;4992592;28;20180;-73
2022/07/10 08:21:49;;;;;;;1999.90;999.90;;;17.80;99.90;;;;;;4992506;28;20171;-73
2022/07/10 08:24:15;;;;;;;1999.90;999.90;;;17.60;99.90;;;;;;4992571;28;20170;-72
2022/07/10 08:26:41;;;;;;;1999.90;999.90;;;17.60;99.90;;;;;;4992336;28;20178;-73
2022/07/10 08:29:07;;;;;;;1999.90;999.90;;;17.50;99.90;;;;;;4992527;28;20165;-73
2022/07/10 08:31:35;;;;;;;1999.90;999.90;;;17.50;99.90;;;;;;4994358;28;20409;-72
2022/07/10 08:34:01;;;;;;;1999.90;999.90;;;17.60;99.90;;;;;;4996654;28;20538;-73
2022/07/10 08:36:26;;;;;;;1999.90;999.90;;;17.80;99.90;;;;;;4996310;28;20500;-72
2022/07/10 08:38:58;;;;;;;1999.90;999.90;;;18.20;99.90;;;;;;4996437;28;20267;-71
2022/07/10 08:41:26;;;;;;;1999.90;999.90;;;18.40;99.90;;;;;;4996445;28;20201;-72
2022/07/10 08:43:52;;;;;;;1999.90;999.90;;;18.60;99.90;;;;;;4996440;28;20409;-72
2022/07/10 08:46:18;;;;;;;1999.90;999.90;;;18.60;99.90;;;;;;4996153;28;20482;-71
2022/07/10 08:48:52;;;;;;;1999.90;999.90;;;18.40;99.90;;;;;;4996351;28;20436;-72
2022/07/10 08:51:30;;;;;;;1999.90;999.90;;;18.40;99.90;;;;;;4996341;28;20449;-72
2022/07/10 08:53:59;;;;;;;1999.90;999.90;;;18.40;99.90;;;;;;4996313;28;20851;-73
2022/07/10 08:56:25;;;;;;;1999.90;999.90;;;18.30;99.90;;;;;;4995986;28;20406;-72
2022/07/10 08:58:53;;;;;;;1999.90;999.90;;;18.50;99.90;;;;;;4996144;28;20421;-72
2022/07/10 09:01:22;;;;;;;1999.90;999.90;;;18.60;99.90;;;;;;4995986;28;20604;-71
2022/07/10 09:03:49;;;;;;;1999.90;999.90;;;18.60;99.90;;;;;;4996063;28;20545;-72
2022/07/10 09:06:15;;;;;;;1999.90;999.90;;;18.60;99.90;;;;;;4995747;28;20526;-72
2022/07/10 09:09:01;;;;;;;1999.90;999.90;;;18.40;99.90;;;;;;4996055;28;20410;-71
2022/07/10 09:11:30;;;;;;;1999.90;999.90;;;18.40;99.90;;;;;;4996005;28;20434;-73
2022/07/10 09:14:03;;;;;;;1999.90;999.90;;;18.40;99.90;;;;;;4992638;28;20418;-73
2022/07/10 09:16:33;;;;;;;1999.90;999.90;;;18.40;99.90;;;;;;4994984;28;21045;-72
2022/07/10 09:19:18;;;;;;;1999.90;999.90;;;18.50;99.90;;;;;;4995497;28;20418;-71
2022/07/10 09:21:45;;;;;;;1999.90;999.90;;;18.50;99.90;;;;;;4994774;28;20508;-71
2022/07/10 09:24:10;;;;;;;1999.90;999.90;;;18.50;99.90;;;;;;4995342;28;20956;-72
2022/07/10 09:26:38;;;;;;;1999.90;999.90;;;18.50;99.90;;;;;;4994835;28;20415;-72
2022/07/10 09:29:12;;;;;;;1999.90;999.90;;;18.50;99.90;;;;;;4991833;28;20209;-71
2022/07/10 09:31:52;;;;;;;1999.90;999.90;;;18.50;99.90;;;;;;4994164;28;20412;-71
2022/07/10 09:34:34;;;;;;;1999.90;999.90;;;18.30;99.90;;;;;;4994501;28;20920;-72
2022/07/10 09:37:16;;;;;;;1999.90;999.90;;;18.30;99.90;;;;;;4993622;28;20413;-72
2022/07/10 09:39:51;;;;;;;1999.90;999.90;;;18.20;99.90;;;;;;4994320;28;20469;-72
2022/07/10 09:42:28;;;;;;;1999.90;999.90;;;18.20;99.90;;;;;;4993795;28;20886;-73
2022/07/10 09:45:12;;;;;;;1999.90;999.90;;;18.10;99.90;;;;;;4993973;28;20942;-73
2022/07/10 09:48:00;;;;;;;1999.90;999.90;;;18.20;99.90;;;;;;4994135;28;20927;-75
2022/07/10 09:50:34;;;;;;;1999.90;999.90;;;18.20;99.90;;;;;;4993442;28;20877;-75
2022/07/10 09:53:01;;;;;;;1999.90;999.90;;;18.40;99.90;;;;;;4995427;28;20501;-75
2022/07/10 09:55:33;;;;;;;1999.90;999.90;;;18.70;99.90;;;;;;4994496;28;20403;-75
2022/07/10 09:57:59;;;;;;;1999.90;999.90;;;19.00;99.90;;;;;;4993688;28;20419;-74
2022/07/10 10:00:31;;;;;;;1999.90;999.90;;;19.10;99.90;;;;;;4993901;28;20491;-73
2022/07/10 10:03:02;;;;;;;1999.90;999.90;;;19.00;99.90;;;;;;4994215;28;20457;-74
2022/07/10 10:06:02;;;;;;;1999.90;999.90;;;18.90;99.90;;;;;;4993733;28;20414;-72
2022/07/10 10:08:32;;;;;;;1999.90;999.90;;;18.70;99.90;;;;;;4994284;28;20459;-73
2022/07/10 10:10:59;;;;;;;1999.90;999.90;;;18.50;99.90;;;;;;4993885;28;20427;-73
2022/07/10 10:13:27;;;;;;;1999.90;999.90;;;18.30;99.90;;;;;;4993576;28;20404;-72
2022/07/10 10:15:54;;;;;;;1999.90;999.90;;;18.30;99.90;;;;;;4993779;28;20931;-72
2022/07/10 10:18:22;;;;;;;1999.90;999.90;;;18.50;99.90;;;;;;4993634;28;20406;-73
2022/07/10 10:20:48;;;;;;;1999.90;999.90;;;18.60;99.90;;;;;;4993233;28;20445;-73
2022/07/10 10:23:22;;;;;;;1999.90;999.90;;;18.50;99.90;;;;;;4993790;28;20457;-73
2022/07/10 10:25:54;;;;;;;1999.90;999.90;;;18.30;99.90;;;;;;4993936;28;21078;-73
2022/07/10 10:28:23;;;;;;;1999.90;999.90;;;18.40;99.90;;;;;;4993200;28;20433;-73
2022/07/10 10:30:51;;;;;;;1999.90;999.90;;;18.50;99.90;;;;;;4993724;28;20846;-73
2022/07/10 10:33:32;;;;;;;1999.90;999.90;;;18.50;99.90;;;;;;4993699;28;20411;-72
2022/07/10 10:35:58;;;;;;;1999.90;999.90;;;18.50;99.90;;;;;;4992975;28;20488;-73
2022/07/10 10:38:24;;;;;;;1999.90;999.90;;;18.40;99.90;;;;;;4993526;28;20417;-73
2022/07/10 10:40:50;;;;;;;1999.90;999.90;;;18.50;99.90;;;;;;4993102;28;20975;-73
2022/07/10 10:43:20;;;;;;;1999.90;999.90;;;18.60;99.90;;;;;;4993145;28;20429;-73
2022/07/10 10:45:49;;;;;;;1999.90;999.90;;;18.50;99.90;;;;;;4993382;28;20179;-72
2022/07/10 10:48:17;;;;;;;1999.90;999.90;;;18.60;99.90;;;;;;4993072;28;20974;-73
2022/07/10 10:50:48;;;;;;;1999.90;999.90;;;18.70;99.90;;;;;;4992752;28;20878;-74
2022/07/10 10:53:21;;;;;;;1999.90;999.90;;;18.90;99.90;;;;;;4992867;28;20907;-73
2022/07/10 10:56:07;;;;;;;1999.90;999.90;;;19.10;99.90;;;;;;4993159;28;20404;-73
2022/07/10 10:58:39;;;;;;;1999.90;999.90;;;19.70;99.90;;;;;;4992403;28;20406;-72
2022/07/10 11:01:14;;;;;;;1999.90;999.90;;;19.90;99.90;;;;;;4992695;28;20466;-73
2022/07/10 11:03:40;;;;;;;1999.90;999.90;;;20.20;99.90;;;;;;4991880;28;20443;-74
2022/07/10 11:06:07;;;;;;;1999.90;999.90;;;20.40;99.90;;;;;;4992333;28;20409;-73
2022/07/10 11:08:41;;;;;;;1999.90;999.90;;;20.40;99.90;;;;;;4993024;28;20166;-74
2022/07/10 11:11:32;;;;;;;1999.90;999.90;;;20.40;99.90;;;;;;4992808;28;20484;-74
2022/07/10 11:13:58;;;;;;;1999.90;999.90;;;20.30;99.90;;;;;;4992518;28;20378;-74
2022/07/10 11:16:26;;;;;;;1999.90;999.90;;;20.30;99.90;;;;;;4992616;28;20408;-72
2022/07/10 11:18:53;;;;;;;1999.90;999.90;;;20.00;99.90;;;;;;4992651;28;20455;-74
2022/07/10 11:21:24;;;;;;;1999.90;999.90;;;19.70;99.90;;;;;;4992040;28;21005;-74
2022/07/10 11:24:10;;;;;;;1999.90;999.90;;;19.50;99.90;;;;;;4992737;28;20489;-74
2022/07/10 11:26:58;;;;;;;1999.90;999.90;;;19.40;99.90;;;;;;4992411;28;20401;-73
2022/07/10 11:29:24;;;;;;;1999.90;999.90;;;19.50;99.90;;;;;;4992693;28;20855;-74
2022/07/10 11:31:54;;;;;;;1999.90;999.90;;;19.70;99.90;;;;;;4992567;28;20490;-73
2022/07/10 11:34:21;;;;;;;1999.90;999.90;;;19.80;99.90;;;;;;4992004;28;20465;-72
2022/07/10 11:36:47;;;;;;;1999.90;999.90;;;19.60;99.90;;;;;;4992231;28;20397;-72
2022/07/10 11:39:13;;;;;;;1999.90;999.90;;;19.50;99.90;;;;;;4992272;28;20408;-74
2022/07/10 11:41:45;;;;;;;1999.90;999.90;;;19.40;99.90;;;;;;4991703;28;20508;-73
2022/07/10 11:44:16;;;;;;;1999.90;999.90;;;19.30;99.90;;;;;;4992332;28;20417;-73
2022/07/10 11:46:44;;;;;;;1999.90;999.90;;;19.30;99.90;;;;;;4991934;28;20436;-74
2022/07/10 11:49:10;;;;;;;1999.90;999.90;;;19.40;99.90;;;;;;4991630;28;20937;-74
2022/07/10 11:51:39;;;;;;;1999.90;999.90;;;19.50;99.90;;;;;;4992336;28;20904;-73
2022/07/10 11:54:10;;;;;;;1999.90;999.90;;;19.60;99.90;;;;;;4992253;28;20419;-74
2022/07/10 11:56:40;;;;;;;1999.90;999.90;;;19.80;99.90;;;;;;4991401;28;20547;-74
2022/07/10 11:59:11;;;;;;;1999.90;999.90;;;20.10;99.90;;;;;;4991799;28;20453;-74
2022/07/10 12:01:50;;;;;;;1999.90;999.90;;;20.30;99.90;;;;;;4991865;28;20965;-72
2022/07/10 12:04:18;;;;;;;1999.90;999.90;;;20.30;99.90;;;;;;4991678;28;20872;-74
2022/07/10 12:06:47;;;;;;;1999.90;999.90;;;20.30;99.90;;;;;;4991698;28;20429;-74
2022/07/10 12:09:19;;;;;;;1999.90;999.90;;;20.50;99.90;;;;;;4991762;28;20825;-72
2022/07/10 12:11:57;;;;;;;1999.90;999.90;;;20.70;99.90;;;;;;4992005;28;20931;-73